createdAt,value
2022-12-31T00:01:43.626Z,12.50
2022-12-31T00:06:53.270Z,12.10
2022-12-31T00:12:03.013Z,11.40
2022-12-31T00:17:12.798Z,14.80
2022-12-31T00:22:22.499Z,12.40
2022-12-31T00:27:35.418Z,12.50
2022-12-31T00:32:45.062Z,11.30
2022-12-31T00:37:56.388Z,12.30
2022-12-31T00:43:06.001Z,12.50
2022-12-31T00:48:16.259Z,11.10
2022-12-31T00:53:26.994Z,10.60
2022-12-31T00:58:36.654Z,12.30
2022-12-31T01:03:46.953Z,10.10
2022-12-31T01:08:57.712Z,14.00
2022-12-31T01:14:12.291Z,12.50
2022-12-31T01:19:25.307Z,8.50
2022-12-31T01:24:34.993Z,10.70
2022-12-31T01:29:44.622Z,7.00
2022-12-31T01:34:54.241Z,9.90
2022-12-31T01:40:04.159Z,12.20
2022-12-31T01:45:18.089Z,10.40
2022-12-31T01:50:33.312Z,9.90
2022-12-31T01:55:48.986Z,12.70
2022-12-31T02:01:01.073Z,11.10
2022-12-31T02:06:19.955Z,12.60
2022-12-31T02:11:35.603Z,10.60
2022-12-31T02:16:56.585Z,11.20
2022-12-31T02:22:19.290Z,9.00
2022-12-31T02:27:47.138Z,10.00
2022-12-31T02:33:30.577Z,12.00
2022-12-31T02:38:46.398Z,11.60
2022-12-31T02:43:56.470Z,14.00
2022-12-31T02:49:17.860Z,12.70
2022-12-31T02:54:43.327Z,13.50
2022-12-31T03:00:16.829Z,10.90
2022-12-31T03:05:31.060Z,15.10
2022-12-31T03:10:40.999Z,12.60
2022-12-31T03:15:51.125Z,16.20
2022-12-31T03:21:18.639Z,10.20
2022-12-31T03:26:28.227Z,13.80
2022-12-31T03:31:37.992Z,14.80
2022-12-31T03:36:47.610Z,14.10
2022-12-31T03:41:57.407Z,11.00
2022-12-31T03:47:07.247Z,12.70
2022-12-31T03:52:17.192Z,10.40
2022-12-31T03:57:27.542Z,14.30
2022-12-31T04:02:37.465Z,15.00
2022-12-31T04:07:48.123Z,15.90
2022-12-31T04:13:00.516Z,14.20
2022-12-31T04:18:10.545Z,15.40
2022-12-31T04:23:20.407Z,16.00
2022-12-31T04:28:30.177Z,11.40
2022-12-31T04:33:39.894Z,11.10
2022-12-31T04:38:49.571Z,12.90
2022-12-31T04:44:01.802Z,13.60
2022-12-31T04:49:12.205Z,17.60
2022-12-31T04:54:22.151Z,16.00
2022-12-31T04:59:32.572Z,13.60
2022-12-31T05:04:42.792Z,12.60
2022-12-31T05:09:53.041Z,14.10
2022-12-31T05:15:02.762Z,20.30
2022-12-31T05:20:13.740Z,29.90
2022-12-31T05:25:23.419Z,52.20
2022-12-31T05:30:33.320Z,42.80
2022-12-31T05:35:43.402Z,58.50
2022-12-31T05:41:00.261Z,33.00
2022-12-31T05:46:10.690Z,26.90
2022-12-31T05:51:20.597Z,32.00
2022-12-31T05:56:30.267Z,18.20
2022-12-31T06:01:40.410Z,15.80
2022-12-31T06:06:49.983Z,20.40
2022-12-31T06:12:00.224Z,19.10
2022-12-31T06:17:09.835Z,16.30
2022-12-31T06:22:19.538Z,15.40
2022-12-31T06:27:29.236Z,18.80
2022-12-31T06:32:39.657Z,17.20
2022-12-31T06:37:50.868Z,13.20
2022-12-31T06:43:00.678Z,24.00
2022-12-31T06:48:11.254Z,24.10
2022-12-31T06:53:20.899Z,20.50
2022-12-31T06:58:32.099Z,16.70
2022-12-31T07:03:53.334Z,15.60
2022-12-31T07:09:13.347Z,15.40
2022-12-31T07:14:37.737Z,15.70
2022-12-31T07:20:02.159Z,10.60
2022-12-31T07:25:17.175Z,14.80
2022-12-31T07:30:37.256Z,10.80
2022-12-31T07:35:58.622Z,13.40
2022-12-31T07:41:18.650Z,15.20
2022-12-31T07:46:41.597Z,14.20
2022-12-31T07:51:53.462Z,14.00
2022-12-31T07:57:03.446Z,13.40
2022-12-31T08:02:27.463Z,13.10
2022-12-31T08:07:48.684Z,13.30
2022-12-31T08:13:06.121Z,12.30
2022-12-31T08:18:17.987Z,7.70
2022-12-31T08:23:38.742Z,12.40
2022-12-31T08:29:17.475Z,9.60
2022-12-31T08:34:40.846Z,9.90
2022-12-31T08:40:09.491Z,18.20
2022-12-31T08:45:27.977Z,32.30
2022-12-31T08:50:39.191Z,59.90
2022-12-31T08:55:53.097Z,46.80
2022-12-31T09:01:05.542Z,39.00
2022-12-31T09:06:27.605Z,32.00
2022-12-31T09:11:56.516Z,56.70
2022-12-31T09:17:26.737Z,66.50
2022-12-31T09:22:38.401Z,25.60
2022-12-31T09:27:59.984Z,27.60
2022-12-31T09:33:18.536Z,14.80
2022-12-31T09:38:39.162Z,34.80
2022-12-31T09:44:48.996Z,18.90
2022-12-31T09:50:39.144Z,17.50
2022-12-31T09:55:54.736Z,21.20
2022-12-31T10:01:22.503Z,21.20
2022-12-31T10:06:48.231Z,14.60
2022-12-31T10:12:37.029Z,16.30
2022-12-31T10:18:08.170Z,12.90
2022-12-31T10:23:40.497Z,10.60
2022-12-31T10:29:01.517Z,11.70
2022-12-31T10:34:32.889Z,11.30
2022-12-31T10:40:03.865Z,11.20
2022-12-31T10:46:05.497Z,14.40
2022-12-31T10:52:04.339Z,16.80
2022-12-31T10:58:12.636Z,13.50
2022-12-31T11:04:15.515Z,18.40
2022-12-31T11:10:14.408Z,13.40
2022-12-31T11:15:54.515Z,11.40
2022-12-31T11:21:37.891Z,11.70
2022-12-31T11:27:19.621Z,9.90
2022-12-31T11:32:53.782Z,8.90
2022-12-31T11:38:22.999Z,15.00
2022-12-31T11:43:43.071Z,7.30
2022-12-31T11:49:13.771Z,9.80
2022-12-31T11:54:54.351Z,9.80
2022-12-31T12:00:08.984Z,8.50
2022-12-31T12:05:23.501Z,12.10
2022-12-31T12:10:43.753Z,8.30
2022-12-31T12:15:57.123Z,8.80
2022-12-31T12:21:15.172Z,12.30
2022-12-31T12:26:40.119Z,15.00
2022-12-31T12:32:01.196Z,17.40
2022-12-31T12:37:29.654Z,9.10
2022-12-31T12:42:47.689Z,11.60
2022-12-31T12:48:04.107Z,12.20
2022-12-31T12:53:35.493Z,13.90
2022-12-31T12:59:02.344Z,13.00
2022-12-31T13:05:05.269Z,11.40
2022-12-31T13:10:35.543Z,13.90
2022-12-31T13:15:52.570Z,13.80
2022-12-31T13:21:21.568Z,9.40
2022-12-31T13:26:37.533Z,11.70
2022-12-31T13:31:50.405Z,9.30
2022-12-31T13:37:08.557Z,11.50
2022-12-31T13:42:31.431Z,8.80
2022-12-31T13:47:47.879Z,11.00
2022-12-31T13:53:04.887Z,9.60
2022-12-31T13:58:24.982Z,13.90
2022-12-31T14:03:47.947Z,13.30
2022-12-31T14:08:58.691Z,8.70
2022-12-31T14:14:25.692Z,9.60
2022-12-31T14:20:03.672Z,11.60
2022-12-31T14:25:25.576Z,8.70
2022-12-31T14:30:41.916Z,10.20
2022-12-31T14:36:12.936Z,11.30
2022-12-31T14:41:45.865Z,11.30
2022-12-31T14:47:16.707Z,12.80
2022-12-31T14:52:31.086Z,9.70
2022-12-31T14:58:17.100Z,10.10
2022-12-31T15:03:41.263Z,13.30
2022-12-31T15:09:11.144Z,18.80
2022-12-31T15:14:52.454Z,59.00
2022-12-31T15:20:33.423Z,19.80
2022-12-31T15:25:51.010Z,37.00
2022-12-31T15:31:07.418Z,24.90
2022-12-31T15:36:24.544Z,15.30
2022-12-31T15:42:10.365Z,16.30
2022-12-31T15:47:29.037Z,15.50
2022-12-31T15:52:46.928Z,21.60
2022-12-31T15:58:00.507Z,11.70
2022-12-31T16:03:25.343Z,9.80
2022-12-31T16:08:38.750Z,9.00
2022-12-31T16:13:54.184Z,10.60
2022-12-31T16:19:04.457Z,7.90
2022-12-31T16:24:33.186Z,8.10
2022-12-31T16:29:55.825Z,7.10
2022-12-31T16:35:23.599Z,8.40
2022-12-31T16:40:34.156Z,8.60
2022-12-31T16:45:44.702Z,8.90
2022-12-31T16:50:57.492Z,14.70
2022-12-31T16:56:10.571Z,10.30
2022-12-31T17:01:26.576Z,10.30
2022-12-31T17:06:36.563Z,8.80
2022-12-31T17:11:54.296Z,8.10
2022-12-31T17:17:08.539Z,7.40
2022-12-31T17:22:35.802Z,9.70
2022-12-31T17:27:59.761Z,11.70
2022-12-31T17:33:34.163Z,11.50
2022-12-31T17:38:44.319Z,10.20
2022-12-31T17:43:58.354Z,12.10
2022-12-31T17:49:11.325Z,25.70
2022-12-31T17:54:22.699Z,11.20
2022-12-31T17:59:34.252Z,10.30
2022-12-31T18:04:43.927Z,10.90
2022-12-31T18:09:53.853Z,8.40
2022-12-31T18:15:03.812Z,12.60
2022-12-31T18:20:15.756Z,17.70
2022-12-31T18:25:27.094Z,25.00
2022-12-31T18:30:38.364Z,27.90
2022-12-31T18:36:08.352Z,22.20
2022-12-31T18:41:23.969Z,16.10
2022-12-31T18:46:33.650Z,25.30
2022-12-31T18:51:43.374Z,21.70
2022-12-31T18:56:57.015Z,27.40
2022-12-31T19:02:07.491Z,37.70
2022-12-31T19:07:17.191Z,32.00
2022-12-31T19:12:26.885Z,29.70
2022-12-31T19:17:36.721Z,59.20
2022-12-31T19:22:46.598Z,40.90
2022-12-31T19:27:56.644Z,29.00
2022-12-31T19:33:06.305Z,43.90
2022-12-31T19:38:23.938Z,32.60
2022-12-31T19:43:33.598Z,33.10
2022-12-31T19:48:43.746Z,46.20
2022-12-31T19:53:54.455Z,60.60
2022-12-31T19:59:09.699Z,46.80
2022-12-31T20:04:19.730Z,36.10
2022-12-31T20:09:29.603Z,27.00
2022-12-31T20:14:39.265Z,24.40
2022-12-31T20:19:49.198Z,22.60
2022-12-31T20:24:59.082Z,38.40
2022-12-31T20:30:11.429Z,21.20
2022-12-31T20:35:22.921Z,29.20
2022-12-31T20:40:33.752Z,22.10
2022-12-31T20:45:45.925Z,24.60
2022-12-31T20:51:01.196Z,26.90
2022-12-31T20:56:12.364Z,18.90
2022-12-31T21:01:23.442Z,26.60
2022-12-31T21:06:34.327Z,91.20
2022-12-31T21:12:01.665Z,26.60
2022-12-31T21:17:11.497Z,14.50
2022-12-31T21:22:21.547Z,9.50
2022-12-31T21:27:31.531Z,9.40
2022-12-31T21:32:41.118Z,9.40
2022-12-31T21:37:58.903Z,9.10
2022-12-31T21:43:10.457Z,10.20
2022-12-31T21:48:25.304Z,10.40
2022-12-31T21:53:37.191Z,11.60
2022-12-31T21:59:10.106Z,7.50
2022-12-31T22:04:59.806Z,7.90
2022-12-31T22:09:49.885Z,11.50
2022-12-31T22:15:15.913Z,12.60
2022-12-31T22:20:27.878Z,9.20
2022-12-31T22:25:40.623Z,7.20
2022-12-31T22:30:52.387Z,7.70
2022-12-31T22:36:09.565Z,10.40
2022-12-31T22:41:22.042Z,9.70
2022-12-31T22:46:33.427Z,10.50
2022-12-31T22:51:56.046Z,8.30
2022-12-31T22:57:13.312Z,7.50
2022-12-31T23:02:25.987Z,12.80
2022-12-31T23:07:35.946Z,18.10
2022-12-31T23:12:45.596Z,12.80
2022-12-31T23:18:12.800Z,6.10
2022-12-31T23:23:22.857Z,9.30
2022-12-31T23:28:32.456Z,6.80
2022-12-31T23:33:42.164Z,11.00
2022-12-31T23:38:54.962Z,10.70
2022-12-31T23:44:04.747Z,11.70
2022-12-31T23:49:14.868Z,13.70
2022-12-31T23:54:24.748Z,15.70
2022-12-31T23:59:34.535Z,8.40
